Time;durP1;ratioP1;P1;durP2;ratioP2;P2;SDS_P1;SDS_P2;PMS_P1;PMS_P2;Temp;Humidity;BMP_temperature;BMP_pressure;BME280_temperature;BME280_humidity;BME280_pressure;Samples;Min_cycle;Max_cycle;Signal;HPM_P1;HPM_P2
2023/01/14 02:35:22;;;;;;;18.80;11.90;;;;;;;-2.10;100.00;100170.35;102718;1275;61648;-60
2023/01/14 02:38:06;;;;;;;18.50;12.00;;;;;;;-2.10;100.00;100174.30;103777;1265;72249;-60
2023/01/14 02:40:46;;;;;;;21.60;13.10;;;;;;;-2.04;100.00;100175.44;104031;1271;69658;-59
2023/01/14 02:46:21;;;;;;;24.00;14.00;;;;;;;-1.92;100.00;100175.79;103788;1263;59434;-60
2023/01/14 02:48:48;;;;;;;16.90;11.30;;;;;;;-1.94;100.00;100174.05;103944;1261;59740;-61
2023/01/14 02:51:15;;;;;;;20.30;11.00;;;;;;;-1.90;100.00;100179.25;103804;1266;73062;-60
2023/01/14 02:53:42;;;;;;;17.70;9.60;;;;;;;-1.87;100.00;100184.29;103957;1268;69042;-60
2023/01/14 02:56:10;;;;;;;18.00;11.40;;;;;;;-1.85;100.00;100187.59;103822;1264;72840;-59
2023/01/14 02:58:47;;;;;;;;;;;;;;;-1.87;100.00;100191.17;104000;1266;59659;-61
2023/01/14 03:01:48;;;;;;;14.80;9.60;;;;;;;-1.91;100.00;100195.05;103861;1262;60020;-59
2023/01/14 03:04:43;;;;;;;16.10;10.40;;;;;;;-1.92;100.00;100196.08;104294;1259;72423;-59
2023/01/14 03:07:21;;;;;;;13.90;9.50;;;;;;;-1.90;100.00;100194.04;104312;1256;69038;-60
2023/01/14 03:10:03;;;;;;;14.50;10.30;;;;;;;-1.93;100.00;100191.58;104268;1259;72178;-60
2023/01/14 03:12:43;;;;;;;14.50;10.10;;;;;;;-2.04;100.00;100193.11;104286;1254;60561;-59
2023/01/14 03:15:33;;;;;;;13.60;10.00;;;;;;;-2.14;100.00;100198.80;104182;1267;59746;-59
2023/01/14 03:18:46;;;;;;;11.70;8.90;;;;;;;-2.09;100.00;100200.94;104388;1271;72324;-59
2023/01/14 03:21:16;;;;;;;13.00;8.30;;;;;;;-2.06;100.00;100203.90;104345;1259;69050;-59
2023/01/14 03:24:06;;;;;;;15.50;9.00;;;;;;;-2.03;100.00;100205.50;104276;1262;72161;-59
2023/01/14 03:26:33;;;;;;;13.80;9.00;;;;;;;-2.02;100.00;100206.04;104282;1259;61395;-60
2023/01/14 03:29:04;;;;;;;12.00;9.10;;;;;;;-1.95;100.00;100206.48;104224;1256;60697;-59
2023/01/14 03:31:32;;;;;;;12.50;8.80;;;;;;;-1.87;100.00;100206.98;104365;1255;72003;-59
2023/01/14 03:34:00;;;;;;;12.40;9.00;;;;;;;-1.83;100.00;100201.71;104307;1262;69385;-59
2023/01/14 03:36:29;;;;;;;12.60;9.30;;;;;;;-1.86;100.00;100203.55;104233;1272;72313;-62
2023/01/14 03:39:00;;;;;;;12.60;9.60;;;;;;;-1.90;100.00;100201.09;104416;1259;60263;-61
2023/01/14 03:44:18;;;;;;;12.90;9.30;;;;;;;-1.83;100.00;100202.40;104534;1266;72252;-62
2023/01/14 03:46:45;;;;;;;12.10;9.40;;;;;;;-1.81;100.00;100199.86;104397;1262;69555;-61
2023/01/14 03:49:12;;;;;;;12.90;8.60;;;;;;;-1.83;100.00;100199.66;104305;1260;72719;-62
2023/01/14 03:52:06;;;;;;;13.50;9.80;;;;;;;-1.83;100.00;100196.73;104287;1256;60902;-61
2023/01/14 03:54:35;;;;;;;14.90;10.50;;;;;;;-1.79;100.00;100198.50;104348;1259;59809;-61
2023/01/14 03:57:35;;;;;;;15.40;9.80;;;;;;;-1.72;100.00;100200.86;104344;1258;72157;-61
2023/01/14 04:00:08;;;;;;;14.00;9.60;;;;;;;-1.74;100.00;100197.56;104254;1272;68805;-62
2023/01/14 04:02:41;;;;;;;17.00;10.90;;;;;;;-1.80;100.00;100200.23;104240;1265;72264;-61
2023/01/14 04:05:08;;;;;;;13.50;9.70;;;;;;;-1.82;100.00;100201.39;104193;1274;59865;-63
2023/01/14 04:07:36;;;;;;;13.30;9.70;;;;;;;-1.80;100.00;100205.20;104285;1256;60329;-61
2023/01/14 04:10:03;;;;;;;11.30;8.70;;;;;;;-1.79;100.00;100205.23;104307;1262;73122;-62
2023/01/14 04:12:30;;;;;;;;;;;;;;;-1.79;100.00;100201.78;104329;1259;69095;-65
2023/01/14 04:17:43;;;;;;;22.00;13.30;;;;;;;-1.91;100.00;100200.90;104318;1259;60494;-61
2023/01/14 04:20:10;;;;;;;18.80;13.40;;;;;;;-1.89;100.00;100204.89;104303;1257;59806;-61
2023/01/14 04:22:37;;;;;;;19.30;14.60;;;;;;;-1.82;100.00;100209.80;104306;1258;73512;-61
2023/01/14 04:25:05;;;;;;;18.00;12.70;;;;;;;-1.78;100.00;100210.91;104215;1268;70971;-61
2023/01/14 04:27:32;;;;;;;;;;;;;;;-1.78;100.00;100210.56;104380;1259;72069;-61
2023/01/14 04:29:59;;;;;;;14.50;10.80;;;;;;;-1.83;100.00;100211.17;104431;1255;59768;-61
2023/01/14 04:32:26;;;;;;;16.20;11.80;;;;;;;-1.82;100.00;100213.93;104444;1272;59629;-61
2023/01/14 04:34:52;;;;;;;14.60;10.30;;;;;;;-1.74;100.00;100215.61;104466;1259;72060;-62
2023/01/14 04:37:20;;;;;;;12.90;10.60;;;;;;;-1.70;100.00;100215.33;104386;1259;69883;-61
2023/01/14 04:39:48;;;;;;;14.50;10.00;;;;;;;-1.70;100.00;100219.80;104384;1271;71837;-61
2023/01/14 04:42:27;;;;;;;12.40;9.40;;;;;;;-1.72;100.00;100217.02;104345;1259;59877;-61
2023/01/14 04:45:04;;;;;;;12.30;9.20;;;;;;;-1.78;100.00;100221.40;104443;1259;59737;-61
2023/01/14 04:47:31;;;;;;;12.20;9.20;;;;;;;-1.74;100.00;100219.23;104463;1260;72377;-61
2023/01/14 04:50:30;;;;;;;12.00;9.30;;;;;;;-1.68;100.00;100218.80;104403;1258;69462;-61
2023/01/14 04:52:45;;;;;;;12.50;9.20;;;;;;;-1.67;100.00;100218.98;104323;1257;72700;-61
2023/01/14 04:55:12;;;;;;;12.90;9.50;;;;;;;-1.67;100.00;100219.33;104266;1257;59648;-61
2023/01/14 04:57:40;;;;;;;13.10;9.80;;;;;;;-1.75;100.00;100222.83;104285;1256;60486;-61
2023/01/14 05:00:09;;;;;;;12.90;9.40;;;;;;;-1.70;100.00;100220.67;104307;1259;71899;-62
2023/01/14 05:02:36;;;;;;;13.40;10.60;;;;;;;-1.64;100.00;100221.80;104302;1267;69961;-61
2023/01/14 05:05:03;;;;;;;11.80;8.50;;;;;;;-1.61;100.00;100225.79;104369;1259;71568;-62
2023/01/14 05:07:30;;;;;;;13.50;9.50;;;;;;;-1.62;100.00;100224.40;104328;1268;59692;-61
2023/01/14 05:09:57;;;;;;;13.10;9.00;;;;;;;-1.62;100.00;100227.48;104315;1256;59826;-61
2023/01/14 05:12:24;;;;;;;11.10;8.90;;;;;;;-1.63;100.00;100228.17;104250;1276;72189;-61
2023/01/14 05:14:51;;;;;;;11.10;8.80;;;;;;;-1.58;100.00;100230.32;104295;1268;69226;-62
2023/01/14 05:17:18;;;;;;;14.10;9.10;;;;;;;-1.55;100.00;100228.98;104329;1256;72282;-62
2023/01/14 05:19:45;;;;;;;11.20;9.10;;;;;;;-1.58;100.00;100225.48;104318;1267;59666;-61
2023/01/14 05:22:12;;;;;;;12.10;9.60;;;;;;;-1.59;100.00;100226.00;104338;1273;59881;-62
2023/01/14 05:24:39;;;;;;;11.50;9.20;;;;;;;-1.54;100.00;100227.44;104301;1259;71891;-61
2023/01/14 05:27:06;;;;;;;12.90;9.40;;;;;;;-1.45;100.00;100230.51;104322;1259;68854;-61
2023/01/14 05:29:33;;;;;;;12.90;9.10;;;;;;;-1.43;100.00;100226.08;104247;1259;72278;-61
2023/01/14 05:32:00;;;;;;;12.20;8.80;;;;;;;-1.50;100.00;100220.45;104349;1259;59617;-61
2023/01/14 05:34:30;;;;;;;9.80;7.90;;;;;;;-1.58;100.00;100221.53;104243;1267;60474;-61
2023/01/14 05:36:57;;;;;;;8.60;6.90;;;;;;;-1.62;100.00;100223.20;104455;1259;72847;-61
2023/01/14 05:39:24;;;;;;;9.40;7.00;;;;;;;-1.61;100.00;100228.88;104240;1272;69070;-60
2023/01/14 05:47:30;;;;;;;11.90;9.20;;;;;;;-1.66;100.00;100238.79;104419;1259;60721;-59
2023/01/14 05:49:57;;;;;;;13.90;9.00;;;;;;;-1.66;100.00;100240.48;104314;1272;72617;-60
2023/01/14 05:52:24;;;;;;;12.80;8.70;;;;;;;-1.63;100.00;100241.23;104357;1256;69078;-60
2023/01/14 05:54:51;;;;;;;13.20;7.90;;;;;;;-1.68;100.00;100244.09;104295;1259;71858;-60
2023/01/14 05:57:19;;;;;;;10.20;7.80;;;;;;;-1.72;100.00;100247.27;104316;1258;60605;-60
2023/01/14 06:21:26;;;;;;;12.80;7.80;;;;;;;-3.12;100.00;100266.69;102396;1281;615284;-61
2023/01/14 06:23:53;;;;;;;14.80;9.10;;;;;;;-2.70;100.00;100281.14;103599;1270;60956;-62
2023/01/14 06:26:21;;;;;;;14.00;9.40;;;;;;;-2.57;100.00;100285.36;103542;1266;59765;-62
2023/01/14 06:28:48;;;;;;;13.50;9.50;;;;;;;-2.44;100.00;100283.58;103534;1266;71514;-62
2023/01/14 06:31:16;;;;;;;10.40;7.90;;;;;;;-2.33;100.00;100274.52;103545;1272;68875;-63
2023/01/14 06:33:44;;;;;;;12.50;8.10;;;;;;;-2.28;100.00;100275.32;103437;1268;277474;-63
2023/01/14 06:36:13;;;;;;;12.80;8.30;;;;;;;-2.23;100.00;100268.87;103940;1264;59457;-61
2023/01/14 06:38:40;;;;;;;11.60;7.90;;;;;;;-2.18;100.00;100262.61;103832;1268;59362;-63
2023/01/14 06:41:08;;;;;;;13.10;8.50;;;;;;;-2.13;100.00;100259.96;103860;1265;71943;-64
2023/01/14 06:43:36;;;;;;;16.90;9.90;;;;;;;-2.06;100.00;100258.88;104114;1268;68609;-62
2023/01/14 06:46:03;;;;;;;13.40;8.40;;;;;;;-1.98;100.00;100262.13;104490;1255;73983;-62
2023/01/14 06:48:31;;;;;;;10.80;7.60;;;;;;;-1.92;100.00;100261.71;104254;1253;59878;-62
2023/01/14 06:51:05;;;;;;;12.40;7.10;;;;;;;-1.91;100.00;100262.23;104370;1253;59677;-65
2023/01/14 06:53:32;;;;;;;13.00;8.80;;;;;;;-1.86;100.00;100255.30;104444;1263;72272;-62
2023/01/14 06:56:08;;;;;;;15.00;9.20;;;;;;;-1.79;100.00;100252.48;104308;1275;69804;-63
2023/01/14 06:58:36;;;;;;;14.50;8.90;;;;;;;-1.78;100.00;100252.66;104571;1257;72263;-63
2023/01/14 07:01:03;;;;;;;14.90;9.60;;;;;;;-1.77;100.00;100254.06;104286;1275;59654;-60
2023/01/14 07:03:31;;;;;;;14.50;8.70;;;;;;;-1.76;100.00;100252.54;104767;1252;60084;-61
2023/01/14 07:05:59;;;;;;;;;;;;;;;-1.69;100.00;100255.23;104340;1252;73451;-61
2023/01/14 07:08:26;;;;;;;12.60;7.90;;;;;;;-1.65;100.00;100257.02;104358;1268;69130;-61
2023/01/14 07:10:54;;;;;;;12.30;8.50;;;;;;;-1.59;100.00;100256.09;104524;1263;71678;-62
2023/01/14 07:13:21;;;;;;;12.40;8.60;;;;;;;-1.55;100.00;100256.14;104672;1256;59725;-62
2023/01/14 07:15:51;;;;;;;15.60;8.70;;;;;;;-1.55;100.00;100260.27;104324;1253;60086;-64
2023/01/14 07:18:19;;;;;;;14.80;9.20;;;;;;;-1.50;100.00;100259.67;104505;1255;72722;-62
2023/01/14 07:20:46;;;;;;;19.20;10.70;;;;;;;-1.47;100.00;100261.44;104521;1254;68914;-64
2023/01/14 07:23:13;;;;;;;15.80;10.00;;;;;;;-1.43;100.00;100263.21;104359;1253;72050;-63
2023/01/14 07:25:40;;;;;;;14.50;9.60;;;;;;;-1.43;100.00;100264.26;104351;1264;60595;-63
2023/01/14 07:28:07;;;;;;;16.40;9.60;;;;;;;-1.43;100.00;100267.00;104664;1253;60643;-65
2023/01/14 07:30:34;;;;;;;14.20;9.60;;;;;;;-1.40;100.00;100269.45;104513;1257;72460;-63
2023/01/14 12:46:55;;;;;;;59.90;33.40;;;;;;;-0.50;100.00;100247.63;106068;1258;72144;-58
2023/01/14 12:49:22;;;;;;;51.30;29.70;;;;;;;-0.51;100.00;100250.71;106052;1247;68721;-59
2023/01/14 12:51:50;;;;;;;36.50;23.50;;;;;;;-0.54;100.00;100250.84;106071;1252;72676;-59
2023/01/14 12:54:27;;;;;;;28.30;17.40;;;;;;;-0.52;100.00;100250.71;105886;1258;60178;-58
2023/01/14 12:56:55;;;;;;;27.20;15.70;;;;;;;-0.54;100.00;100252.73;106101;1258;60060;-60
2023/01/14 12:59:39;;;;;;;19.10;11.80;;;;;;;-0.51;100.00;100261.73;105975;1247;73464;-58
2023/01/14 13:02:10;;;;;;;32.20;18.70;;;;;;;-0.47;100.00;100259.71;106024;1247;70291;-59
2023/01/14 13:04:39;;;;;;;24.00;15.30;;;;;;;-0.49;100.00;100260.89;106037;1258;71738;-60
2023/01/14 13:07:19;;;;;;;22.60;14.30;;;;;;;-0.52;100.00;100262.41;105933;1248;59933;-59
2023/01/14 13:09:53;;;;;;;77.30;40.30;;;;;;;-0.61;100.00;100259.89;105984;1246;60071;-59
2023/01/14 13:12:33;;;;;;;71.50;37.60;;;;;;;-0.60;100.00;100259.38;106373;1250;72426;-58
2023/01/14 13:20:37;;;;;;;33.90;19.40;;;;;;;-0.70;100.00;100265.45;106555;1247;73838;-57
2023/01/14 13:23:05;;;;;;;26.20;17.00;;;;;;;-0.70;100.00;100263.05;106252;1247;60517;-60
2023/01/14 13:25:41;;;;;;;20.30;13.90;;;;;;;-0.66;100.00;100267.91;106201;1251;59611;-58
2023/01/14 13:28:11;;;;;;;29.10;19.20;;;;;;;-0.63;100.00;100270.04;106050;1247;72993;-61
2023/01/14 13:30:46;;;;;;;36.80;20.30;;;;;;;-0.58;100.00;100272.66;106118;1258;69129;-58
2023/01/14 13:33:21;;;;;;;48.10;26.50;;;;;;;-0.56;100.00;100274.08;106038;1249;72414;-58
2023/01/14 13:36:08;;;;;;;65.80;30.50;;;;;;;-0.54;100.00;100277.35;106102;1251;60651;-58
2023/01/14 13:38:42;;;;;;;70.80;33.00;;;;;;;-0.52;100.00;100273.95;106448;1246;61077;-59
2023/01/14 13:41:10;;;;;;;39.90;20.50;;;;;;;-0.47;100.00;100273.48;106089;1249;72743;-60
2023/01/14 13:43:48;;;;;;;29.80;16.60;;;;;;;-0.44;100.00;100276.64;106269;1253;69399;-58
2023/01/14 13:46:19;;;;;;;20.00;13.00;;;;;;;-0.42;100.00;100275.61;106101;1244;72554;-58
2023/01/14 13:48:51;;;;;;;18.80;12.50;;;;;;;-0.39;100.00;100276.70;106450;1239;60918;-57
2023/01/14 13:51:19;;;;;;;18.60;11.40;;;;;;;-0.37;100.00;100274.47;106758;1235;60133;-58
2023/01/14 13:54:12;;;;;;;17.80;11.30;;;;;;;-0.37;100.00;100270.51;106850;1250;73018;-58
2023/01/14 13:57:08;;;;;;;17.00;10.90;;;;;;;-0.37;100.00;100273.61;106852;1242;68654;-59
2023/01/14 13:59:35;;;;;;;;;;;;;;;-0.35;100.00;100276.39;107204;1239;72215;-60
2023/01/14 14:02:02;;;;;;;16.90;10.30;;;;;;;-0.40;100.00;100276.34;106918;1236;60338;-58
2023/01/14 14:04:55;;;;;;;19.30;13.00;;;;;;;-0.36;100.00;100280.85;106635;1241;60900;-57
2023/01/14 14:08:00;;;;;;;19.40;12.70;;;;;;;-0.32;100.00;100276.92;106742;1240;73801;-58
2023/01/14 14:10:42;;;;;;;17.90;11.90;;;;;;;-0.32;100.00;100280.73;106253;1248;69370;-59
2023/01/14 14:16:01;;;;;;;18.30;11.80;;;;;;;-0.34;100.00;100280.54;106782;1250;60266;-60
2023/01/14 14:18:32;;;;;;;16.40;10.50;;;;;;;-0.34;100.00;100279.16;106734;1240;60173;-59
2023/01/14 14:20:59;;;;;;;17.40;10.70;;;;;;;-0.32;100.00;100286.59;106805;1235;72843;-58
2023/01/14 14:23:41;;;;;;;17.20;10.30;;;;;;;-0.34;100.00;100290.52;106818;1240;68486;-59
2023/01/14 14:26:13;;;;;;;19.00;12.10;;;;;;;-0.33;100.00;100294.50;106842;1235;72721;-59
2023/01/14 14:28:41;;;;;;;24.90;14.40;;;;;;;-0.28;100.00;100293.52;106647;1236;60059;-61
2023/01/14 18:23:15;;;;;;;14.50;9.60;;;;;;;-0.72;100.00;100357.90;103324;1271;62425;-61
2023/01/14 18:25:43;;;;;;;17.10;11.10;;;;;;;-0.54;100.00;100356.94;103837;1277;61945;-61
2023/01/14 18:28:10;;;;;;;17.50;11.20;;;;;;;-0.40;100.00;100354.02;103717;1270;72538;-61
2023/01/14 18:30:38;;;;;;;16.50;11.10;;;;;;;-0.27;100.00;100345.91;103837;1267;70050;-60
2023/01/14 18:33:05;;;;;;;14.40;10.10;;;;;;;-0.16;100.00;100336.92;103723;1265;157947;-61
2023/01/14 18:35:33;;;;;;;15.00;10.70;;;;;;;-0.03;100.00;100332.94;103990;1265;61068;-61
2023/01/14 18:38:01;;;;;;;14.00;9.90;;;;;;;0.08;100.00;100329.09;103885;1267;60680;-60
2023/01/14 18:40:28;;;;;;;15.60;9.90;;;;;;;0.18;100.00;100313.85;103921;1277;71920;-61
2023/01/14 18:42:56;;;;;;;15.00;10.30;;;;;;;0.25;100.00;100307.19;103894;1266;70600;-61
2023/01/14 18:45:24;;;;;;;15.90;10.10;;;;;;;0.31;100.00;100301.05;103862;1266;74400;-61
2023/01/14 18:47:51;;;;;;;15.60;10.10;;;;;;;0.38;100.00;100294.20;103915;1262;61598;-62
2023/01/14 18:50:19;;;;;;;14.90;10.30;;;;;;;0.42;100.00;100291.14;103945;1275;60159;-61
2023/01/14 18:52:54;;;;;;;11.20;8.70;;;;;;;0.48;100.00;100289.29;103928;1266;75645;-61
2023/01/14 18:55:22;;;;;;;14.60;9.60;;;;;;;0.51;100.00;100286.03;103862;1276;70490;-61
2023/01/14 18:57:49;;;;;;;11.30;8.80;;;;;;;0.53;100.00;100289.85;103953;1277;72076;-60
2023/01/14 19:00:16;;;;;;;12.50;9.30;;;;;;;0.56;100.00;100291.77;103839;1277;60848;-61
2023/01/14 19:02:43;;;;;;;14.80;10.10;;;;;;;0.57;100.00;100293.85;103934;1262;62914;-61
2023/01/14 19:05:11;;;;;;;13.30;9.80;;;;;;;0.58;100.00;100294.72;103962;1261;73257;-61
2023/01/14 19:07:38;;;;;;;12.00;9.10;;;;;;;0.60;100.00;100293.87;103897;1265;70094;-61
2023/01/14 19:10:06;;;;;;;11.40;8.30;;;;;;;0.61;100.00;100296.64;103908;1276;74637;-61
2023/01/14 19:12:33;;;;;;;12.50;8.60;;;;;;;0.66;100.00;100298.40;104013;1280;63703;-62
2023/01/14 19:15:00;;;;;;;10.00;7.30;;;;;;;0.66;100.00;100300.98;103866;1261;59905;-61
2023/01/14 19:17:28;;;;;;;8.70;6.50;;;;;;;0.68;100.00;100294.80;103926;1266;73705;-61
2023/01/14 19:19:55;;;;;;;12.20;8.00;;;;;;;0.71;100.00;100297.40;103859;1261;71870;-62
2023/01/14 19:22:23;;;;;;;18.50;11.60;;;;;;;0.67;100.00;100300.67;103962;1262;72582;-61
2023/01/14 19:24:50;;;;;;;15.50;10.30;;;;;;;0.68;100.00;100303.42;103915;1262;61914;-61
2023/01/14 19:27:17;;;;;;;14.60;10.70;;;;;;;0.69;100.00;100302.74;103861;1275;60323;-60
2023/01/14 19:29:44;;;;;;;13.20;9.20;;;;;;;0.71;100.00;100307.08;103955;1262;73370;-61
2023/01/14 19:32:11;;;;;;;13.00;9.00;;;;;;;0.73;100.00;100303.80;103896;1265;72311;-61
2023/01/14 19:34:40;;;;;;;10.80;8.20;;;;;;;0.75;100.00;100305.39;103928;1277;72718;-61
2023/01/14 19:37:07;;;;;;;13.30;8.90;;;;;;;0.77;100.00;100307.63;103893;1262;61913;-61
2023/01/14 19:39:37;;;;;;;12.80;8.80;;;;;;;0.77;100.00;100308.34;103923;1267;60649;-62
2023/01/14 19:42:05;;;;;;;10.30;8.10;;;;;;;0.78;100.00;100308.52;103720;1273;74413;-59
2023/01/14 19:44:32;;;;;;;11.20;8.20;;;;;;;0.77;100.00;100312.65;103875;1282;69910;-60
2023/01/14 19:46:59;;;;;;;11.90;8.80;;;;;;;0.77;100.00;100306.60;103894;1276;73311;-60
2023/01/14 19:49:26;;;;;;;11.10;8.20;;;;;;;0.78;100.00;100307.98;103966;1265;61460;-59
2023/01/14 19:51:53;;;;;;;11.70;8.20;;;;;;;0.78;100.00;100304.55;103931;1259;61965;-61
2023/01/14 19:54:21;;;;;;;10.80;8.30;;;;;;;0.77;100.00;100302.45;104027;1263;72250;-59
2023/01/14 19:56:48;;;;;;;10.70;7.50;;;;;;;0.76;100.00;100301.94;103977;1261;70077;-59
2023/01/14 19:59:15;;;;;;;11.10;7.60;;;;;;;0.73;100.00;100306.92;103992;1259;73319;-60
2023/01/14 20:01:42;;;;;;;10.80;8.10;;;;;;;0.70;100.00;100310.00;103948;1278;60683;-60
2023/01/14 20:04:13;;;;;;;13.70;8.80;;;;;;;0.70;100.00;100310.35;103954;1258;60680;-59
2023/01/14 20:06:41;;;;;;;10.40;7.90;;;;;;;0.71;100.00;100312.77;104019;1271;73710;-63
2023/01/14 20:09:09;;;;;;;;;;;;;;;0.74;100.00;100313.14;104107;1257;71937;-60
2023/01/14 20:11:37;;;;;;;10.80;7.40;;;;;;;0.71;100.00;100308.81;104057;1259;73538;-59
2023/01/14 20:14:04;;;;;;;;;;;;;;;0.70;100.00;100309.66;104043;1271;63444;-60
2023/01/14 20:16:31;;;;;;;9.20;7.10;;;;;;;0.66;100.00;100312.73;104032;1258;60079;-60
2023/01/14 20:18:58;;;;;;;10.00;6.90;;;;;;;0.70;100.00;100315.52;103966;1277;72386;-60
2023/01/14 20:21:26;;;;;;;10.70;8.00;;;;;;;0.74;100.00;100317.46;104051;1270;69546;-59
2023/01/14 20:23:53;;;;;;;;;;;;;;;0.80;100.00;100315.27;103916;1261;75012;-59
2023/01/14 20:26:21;;;;;;;10.30;7.30;;;;;;;0.76;100.00;100314.88;104001;1277;61460;-59
2023/01/14 20:28:49;;;;;;;11.40;8.00;;;;;;;0.78;100.00;100312.30;103966;1270;61066;-59
2023/01/14 20:31:21;;;;;;;8.00;5.90;;;;;;;0.77;100.00;100312.13;104119;1258;73287;-60
2023/01/14 20:33:49;;;;;;;11.30;7.60;;;;;;;0.76;100.00;100311.25;103991;1258;70481;-59
2023/01/14 20:36:16;;;;;;;11.30;7.30;;;;;;;0.77;100.00;100317.83;103945;1261;72945;-61
2023/01/14 20:38:43;;;;;;;11.90;8.20;;;;;;;0.79;100.00;100316.46;103944;1279;61607;-59
2023/01/14 20:41:12;;;;;;;10.10;7.10;;;;;;;0.77;100.00;100316.27;104018;1261;61065;-59
2023/01/14 20:43:39;;;;;;;9.60;7.20;;;;;;;0.78;100.00;100319.89;103980;1272;73976;-59
2023/01/14 20:46:14;;;;;;;;;;;;;;;0.78;100.00;100321.11;103925;1261;69088;-59
2023/01/14 20:48:42;;;;;;;11.70;8.40;;;;;;;0.70;100.00;100323.46;104180;1258;73555;-60
2023/01/14 20:51:14;;;;;;;12.10;8.40;;;;;;;0.69;100.00;100325.17;103984;1267;60679;-60
2023/01/14 20:53:41;;;;;;;13.30;8.20;;;;;;;0.68;100.00;100322.23;104068;1257;62819;-60
2023/01/14 20:56:13;;;;;;;12.80;8.30;;;;;;;0.68;100.00;100324.66;104049;1257;73774;-59
2023/01/14 21:01:19;;;;;;;11.60;8.50;;;;;;;0.70;100.00;100323.29;103973;1274;72918;-60
2023/01/14 21:03:47;;;;;;;12.80;8.80;;;;;;;0.71;100.00;100319.84;103983;1261;61206;-60
2023/01/14 21:06:14;;;;;;;;;;;;;;;0.72;100.00;100320.37;104054;1258;60651;-59
2023/01/14 21:08:41;;;;;;;11.10;7.60;;;;;;;0.69;100.00;100319.49;104058;1261;73220;-60
2023/01/14 21:11:11;;;;;;;10.50;7.60;;;;;;;0.70;100.00;100318.11;104179;1272;70361;-59
2023/01/14 21:25:01;;;;;;;10.10;7.20;;;;;;;0.72;100.00;100319.85;103938;1258;69519;-61
2023/01/14 21:27:28;;;;;;;11.60;7.80;;;;;;;0.66;100.00;100323.09;104065;1261;72580;-59
2023/01/14 21:29:55;;;;;;;11.20;7.40;;;;;;;0.67;100.00;100331.20;104046;1261;61049;-60
2023/01/14 21:32:23;;;;;;;10.50;7.40;;;;;;;0.73;100.00;100335.40;103910;1261;61070;-60
2023/01/14 21:35:05;;;;;;;9.90;6.80;;;;;;;0.84;100.00;100333.92;104197;1257;72892;-60
2023/01/14 21:37:32;;;;;;;10.70;8.20;;;;;;;0.89;100.00;100331.03;104085;1261;70477;-61
2023/01/14 21:39:59;;;;;;;10.50;7.80;;;;;;;0.89;100.00;100331.38;103961;1261;72538;-60
2023/01/14 21:45:12;;;;;;;10.30;7.10;;;;;;;0.83;100.00;100324.42;103978;1261;61409;-59
2023/01/14 21:47:53;;;;;;;10.80;8.00;;;;;;;0.90;100.00;100318.96;104149;1259;73696;-60
2023/01/14 21:50:31;;;;;;;13.00;8.20;;;;;;;0.94;100.00;100316.91;103951;1271;70149;-59
2023/01/14 21:53:18;;;;;;;;;;;;;;;0.90;100.00;100317.41;104168;1261;71978;-60
